International Virtual Aviation Organisation

Russian Federation and Kazakhstan MCD

 

Карточка аэропорта UHMA

Внимание!
Информация на этой странице в стадии наполнения.
Если вы не увидели какой-то информации, или заметили неточность - пожалуйста сообщите нам!
Спасибо!
Команда RU-STAFF
Название аэропортаУгольный
Название аэропорта (англ.)Ugolny
Превышение194 ft. (59.1 m.)
Координаты64°44.1', 177°44.28'
Высота перехода1600m
Эшелон переходаQFE>=755mm:FL070; QFE<755=>728:FL080; QFE<728:FL090
Коды ответчика6501-6537
Зона ОрВДМагадан РПИ (UHMM)
Данные METARUHMA 180700Z 36004MPS 9999 -SN OVC018 M23/M26 Q1014 R01/////// NOSIG RMK END R01/35003MPS QFE757/1009
Проноз погоды (TAF)UHMA 180444Z 1806/1906 33006MPS 9999 SCT030 TEMPO 1806/1823 02003MPS 4000 BR SCT010 BKN025 FM182300 34005MPS 5000 -SN SCT010 BKN025 TEMPO 1823/1906 02007MPS 2000 SN BKN010 BKN020
NOTAMshow/hide NOTAM
AWOS   TABLE

Информация о ВПП


Диспетчерские позиции

Позывной Наименование органа УВД Частота
UHMA_APPАнадырь-Подход124.0
UHMA_TWRАнадырь-Старт124.0



Спутниковое изображение